sensor_id;sensor_type;location;lat;lon;timestamp;pressure;altitude;pressure_sealevel;temperature;humidity
50310;BME280;36207;51.850;21.698;2022-11-18T00:02:17;98877.69;;;-0.10;67.77
50310;BME280;36207;51.850;21.698;2022-11-18T00:04:43;98875.49;;;-0.11;67.79
50310;BME280;36207;51.850;21.698;2022-11-18T00:07:09;98873.65;;;-0.12;67.91
50310;BME280;36207;51.850;21.698;2022-11-18T00:09:35;98868.91;;;-0.12;68.20
50310;BME280;36207;51.850;21.698;2022-11-18T00:12:01;98865.91;;;-0.11;68.08
50310;BME280;36207;51.850;21.698;2022-11-18T00:14:46;98868.51;;;-0.11;68.04
50310;BME280;36207;51.850;21.698;2022-11-18T00:17:12;98868.73;;;-0.12;68.06
50310;BME280;36207;51.850;21.698;2022-11-18T00:19:39;98866.46;;;-0.12;68.11
50310;BME280;36207;51.850;21.698;2022-11-18T00:22:07;98870.77;;;-0.11;68.12
50310;BME280;36207;51.850;21.698;2022-11-18T00:24:36;98868.92;;;-0.10;67.97
50310;BME280;36207;51.850;21.698;2022-11-18T00:27:02;98867.61;;;-0.11;68.05
50310;BME280;36207;51.850;21.698;2022-11-18T00:29:28;98869.36;;;-0.11;68.04
50310;BME280;36207;51.850;21.698;2022-11-18T00:31:57;98868.24;;;-0.12;67.89
50310;BME280;36207;51.850;21.698;2022-11-18T00:34:24;98865.42;;;-0.13;67.81
50310;BME280;36207;51.850;21.698;2022-11-18T00:36:50;98861.75;;;-0.14;67.98
50310;BME280;36207;51.850;21.698;2022-11-18T00:39:18;98862.91;;;-0.13;67.88
50310;BME280;36207;51.850;21.698;2022-11-18T00:41:45;98859.01;;;-0.12;67.96
50310;BME280;36207;51.850;21.698;2022-11-18T00:44:30;98855.20;;;-0.13;68.14
50310;BME280;36207;51.850;21.698;2022-11-18T00:46:57;98854.55;;;-0.12;67.84
50310;BME280;36207;51.850;21.698;2022-11-18T00:49:23;98853.87;;;-0.10;68.17
50310;BME280;36207;51.850;21.698;2022-11-18T00:51:50;98850.39;;;-0.10;67.91
50310;BME280;36207;51.850;21.698;2022-11-18T00:54:16;98855.09;;;-0.10;68.06
50310;BME280;36207;51.850;21.698;2022-11-18T00:56:42;98852.79;;;-0.09;68.19
50310;BME280;36207;51.850;21.698;2022-11-18T00:59:09;98854.81;;;-0.09;68.01
50310;BME280;36207;51.850;21.698;2022-11-18T01:01:35;98856.93;;;-0.07;68.25
50310;BME280;36207;51.850;21.698;2022-11-18T01:04:01;98857.02;;;-0.06;68.37
50310;BME280;36207;51.850;21.698;2022-11-18T01:06:28;98858.06;;;-0.04;68.20
50310;BME280;36207;51.850;21.698;2022-11-18T01:08:55;98853.98;;;-0.04;68.09
50310;BME280;36207;51.850;21.698;2022-11-18T01:11:21;98847.83;;;-0.05;67.98
50310;BME280;36207;51.850;21.698;2022-11-18T01:14:06;98848.92;;;-0.06;67.99
50310;BME280;36207;51.850;21.698;2022-11-18T01:16:32;98848.17;;;-0.07;68.11
50310;BME280;36207;51.850;21.698;2022-11-18T01:18:58;98841.18;;;-0.07;68.00
50310;BME280;36207;51.850;21.698;2022-11-18T01:21:25;98839.06;;;-0.07;68.26
50310;BME280;36207;51.850;21.698;2022-11-18T01:23:51;98835.88;;;-0.07;68.37
50310;BME280;36207;51.850;21.698;2022-11-18T01:26:17;98835.77;;;-0.05;68.15
50310;BME280;36207;51.850;21.698;2022-11-18T01:28:44;98835.80;;;-0.04;68.14
50310;BME280;36207;51.850;21.698;2022-11-18T01:31:13;98834.85;;;0.01;68.29
50310;BME280;36207;51.850;21.698;2022-11-18T01:33:41;98823.56;;;0.06;68.20
50310;BME280;36207;51.850;21.698;2022-11-18T01:36:15;98820.80;;;0.08;67.92
50310;BME280;36207;51.850;21.698;2022-11-18T01:38:41;98820.61;;;0.10;67.94
50310;BME280;36207;51.850;21.698;2022-11-18T01:41:08;98816.60;;;0.12;68.00
50310;BME280;36207;51.850;21.698;2022-11-18T01:46:20;98814.30;;;0.19;68.51
50310;BME280;36207;51.850;21.698;2022-11-18T01:48:51;98812.66;;;0.22;68.44
50310;BME280;36207;51.850;21.698;2022-11-18T01:51:22;98810.46;;;0.21;68.16
50310;BME280;36207;51.850;21.698;2022-11-18T01:53:57;98811.98;;;0.19;68.28
50310;BME280;36207;51.850;21.698;2022-11-18T01:56:36;98811.77;;;0.18;68.39
50310;BME280;36207;51.850;21.698;2022-11-18T01:59:17;98810.77;;;0.18;68.41
50310;BME280;36207;51.850;21.698;2022-11-18T02:01:44;98811.60;;;0.18;68.42
50310;BME280;36207;51.850;21.698;2022-11-18T02:04:13;98807.67;;;0.19;68.42
50310;BME280;36207;51.850;21.698;2022-11-18T02:06:41;98804.66;;;0.21;68.44
50310;BME280;36207;51.850;21.698;2022-11-18T02:09:07;98804.39;;;0.24;68.53
50310;BME280;36207;51.850;21.698;2022-11-18T02:11:34;98809.45;;;0.26;68.39
50310;BME280;36207;51.850;21.698;2022-11-18T02:14:18;98806.07;;;0.27;68.31
50310;BME280;36207;51.850;21.698;2022-11-18T02:22:24;98807.02;;;0.26;68.58
50310;BME280;36207;51.850;21.698;2022-11-18T02:33:51;98821.35;;;0.32;68.30
50310;BME280;36207;51.850;21.698;2022-11-18T02:37:02;98823.09;;;0.32;68.55
50310;BME280;36207;51.850;21.698;2022-11-18T02:39:38;98819.58;;;0.32;68.54
50310;BME280;36207;51.850;21.698;2022-11-18T02:42:10;98816.73;;;0.33;68.41
50310;BME280;36207;51.850;21.698;2022-11-18T02:44:40;98814.54;;;0.33;68.56
50310;BME280;36207;51.850;21.698;2022-11-18T02:47:10;98812.33;;;0.33;68.48
50310;BME280;36207;51.850;21.698;2022-11-18T02:49:47;98806.29;;;0.32;68.34
50310;BME280;36207;51.850;21.698;2022-11-18T02:52:17;98800.21;;;0.31;68.26
50310;BME280;36207;51.850;21.698;2022-11-18T02:54:46;98795.52;;;0.31;68.56
50310;BME280;36207;51.850;21.698;2022-11-18T02:57:14;98795.19;;;0.31;68.68
50310;BME280;36207;51.850;21.698;2022-11-18T02:59:41;98795.98;;;0.30;68.48
50310;BME280;36207;51.850;21.698;2022-11-18T03:02:16;98798.30;;;0.27;68.58
50310;BME280;36207;51.850;21.698;2022-11-18T03:04:45;98795.70;;;0.24;68.72
50310;BME280;36207;51.850;21.698;2022-11-18T03:07:33;98795.57;;;0.23;68.57
50310;BME280;36207;51.850;21.698;2022-11-18T03:10:02;98792.73;;;0.23;68.39
50310;BME280;36207;51.850;21.698;2022-11-18T03:12:39;98789.13;;;0.23;68.41
50310;BME280;36207;51.850;21.698;2022-11-18T03:16:04;98788.27;;;0.23;68.37
50310;BME280;36207;51.850;21.698;2022-11-18T03:18:28;98784.11;;;0.22;68.44
50310;BME280;36207;51.850;21.698;2022-11-18T03:21:02;98784.06;;;0.22;68.22
50310;BME280;36207;51.850;21.698;2022-11-18T03:23:36;98783.80;;;0.19;68.32
50310;BME280;36207;51.850;21.698;2022-11-18T03:26:15;98784.22;;;0.17;68.35
50310;BME280;36207;51.850;21.698;2022-11-18T03:28:59;98777.79;;;0.15;68.24
50310;BME280;36207;51.850;21.698;2022-11-18T03:31:30;98773.64;;;0.12;68.31
50310;BME280;36207;51.850;21.698;2022-11-18T03:34:04;98769.73;;;0.11;68.55
50310;BME280;36207;51.850;21.698;2022-11-18T03:36:36;98765.56;;;0.11;68.69
50310;BME280;36207;51.850;21.698;2022-11-18T03:39:05;98764.88;;;0.09;68.78
50310;BME280;36207;51.850;21.698;2022-11-18T03:41:38;98766.67;;;0.06;68.79
50310;BME280;36207;51.850;21.698;2022-11-18T03:44:12;98759.06;;;0.04;68.73
50310;BME280;36207;51.850;21.698;2022-11-18T03:47:05;98758.42;;;0.01;68.99
50310;BME280;36207;51.850;21.698;2022-11-18T03:49:42;98751.89;;;-0.00;68.94
50310;BME280;36207;51.850;21.698;2022-11-18T03:52:14;98752.04;;;-0.02;68.96
50310;BME280;36207;51.850;21.698;2022-11-18T03:54:44;98751.13;;;-0.02;69.01
50310;BME280;36207;51.850;21.698;2022-11-18T03:57:19;98752.48;;;-0.01;69.02
50310;BME280;36207;51.850;21.698;2022-11-18T03:59:52;98748.85;;;0.00;69.28
50310;BME280;36207;51.850;21.698;2022-11-18T04:02:25;98748.86;;;0.04;69.12
50310;BME280;36207;51.850;21.698;2022-11-18T04:04:55;98749.86;;;0.08;69.22
50310;BME280;36207;51.850;21.698;2022-11-18T04:07:38;98749.69;;;0.12;69.22
50310;BME280;36207;51.850;21.698;2022-11-18T04:10:18;98752.26;;;0.15;69.07
50310;BME280;36207;51.850;21.698;2022-11-18T04:15:42;98756.63;;;0.15;69.21
50310;BME280;36207;51.850;21.698;2022-11-18T04:18:09;98760.69;;;0.14;69.27
50310;BME280;36207;51.850;21.698;2022-11-18T04:20:36;98754.98;;;0.13;69.23
50310;BME280;36207;51.850;21.698;2022-11-18T04:23:04;98753.73;;;0.12;69.41
50310;BME280;36207;51.850;21.698;2022-11-18T04:25:31;98753.57;;;0.10;69.21
50310;BME280;36207;51.850;21.698;2022-11-18T04:27:57;98755.17;;;0.08;69.20
50310;BME280;36207;51.850;21.698;2022-11-18T04:30:23;98757.81;;;0.06;69.23
50310;BME280;36207;51.850;21.698;2022-11-18T04:32:49;98755.77;;;0.03;69.21
50310;BME280;36207;51.850;21.698;2022-11-18T04:35:16;98756.14;;;0.01;69.26
50310;BME280;36207;51.850;21.698;2022-11-18T04:37:42;98755.54;;;-0.00;69.14
50310;BME280;36207;51.850;21.698;2022-11-18T04:40:09;98751.05;;;-0.01;69.16
50310;BME280;36207;51.850;21.698;2022-11-18T04:42:35;98746.23;;;-0.04;69.09
50310;BME280;36207;51.850;21.698;2022-11-18T04:45:03;98747.15;;;-0.06;69.02
50310;BME280;36207;51.850;21.698;2022-11-18T04:47:29;98746.03;;;-0.09;69.11
50310;BME280;36207;51.850;21.698;2022-11-18T04:49:55;98747.14;;;-0.11;69.17
50310;BME280;36207;51.850;21.698;2022-11-18T04:52:22;98749.55;;;-0.15;69.23
50310;BME280;36207;51.850;21.698;2022-11-18T04:54:48;98748.60;;;-0.14;69.05
50310;BME280;36207;51.850;21.698;2022-11-18T04:57:14;98750.29;;;-0.09;69.22
50310;BME280;36207;51.850;21.698;2022-11-18T04:59:40;98756.45;;;-0.07;69.36
50310;BME280;36207;51.850;21.698;2022-11-18T05:02:07;98754.52;;;-0.05;69.18
50310;BME280;36207;51.850;21.698;2022-11-18T05:04:34;98757.02;;;-0.01;69.30
50310;BME280;36207;51.850;21.698;2022-11-18T05:07:01;98751.75;;;0.02;69.39
50310;BME280;36207;51.850;21.698;2022-11-18T05:09:28;98749.48;;;0.03;69.19
50310;BME280;36207;51.850;21.698;2022-11-18T05:11:54;98744.69;;;0.00;69.24
50310;BME280;36207;51.850;21.698;2022-11-18T05:14:39;98742.61;;;-0.00;69.33
50310;BME280;36207;51.850;21.698;2022-11-18T05:17:08;98742.52;;;-0.02;69.34
50310;BME280;36207;51.850;21.698;2022-11-18T05:19:37;98738.72;;;-0.04;69.23
50310;BME280;36207;51.850;21.698;2022-11-18T05:22:06;98741.16;;;-0.06;69.32
50310;BME280;36207;51.850;21.698;2022-11-18T05:24:32;98744.09;;;-0.09;69.20
50310;BME280;36207;51.850;21.698;2022-11-18T05:26:58;98741.42;;;-0.10;69.34
50310;BME280;36207;51.850;21.698;2022-11-18T05:29:25;98740.12;;;-0.11;69.41
50310;BME280;36207;51.850;21.698;2022-11-18T05:31:51;98740.95;;;-0.11;69.46
50310;BME280;36207;51.850;21.698;2022-11-18T05:34:18;98741.23;;;-0.10;69.47
50310;BME280;36207;51.850;21.698;2022-11-18T05:36:44;98745.29;;;-0.10;69.47
50310;BME280;36207;51.850;21.698;2022-11-18T05:39:10;98741.77;;;-0.10;69.60
50310;BME280;36207;51.850;21.698;2022-11-18T05:41:37;98743.26;;;-0.06;69.71
50310;BME280;36207;51.850;21.698;2022-11-18T05:44:22;98747.85;;;-0.01;69.70
50310;BME280;36207;51.850;21.698;2022-11-18T05:46:48;98745.48;;;0.03;69.59
50310;BME280;36207;51.850;21.698;2022-11-18T05:49:14;98743.59;;;0.04;69.63
50310;BME280;36207;51.850;21.698;2022-11-18T05:51:41;98746.17;;;0.07;69.51
50310;BME280;36207;51.850;21.698;2022-11-18T05:54:08;98742.52;;;0.03;69.37
50310;BME280;36207;51.850;21.698;2022-11-18T05:56:40;98737.44;;;-0.02;69.45
50310;BME280;36207;51.850;21.698;2022-11-18T05:59:07;98737.27;;;-0.03;69.69
50310;BME280;36207;51.850;21.698;2022-11-18T06:05:03;98738.30;;;-0.05;69.59
50310;BME280;36207;51.850;21.698;2022-11-18T06:07:12;98736.64;;;-0.07;69.66
50310;BME280;36207;51.850;21.698;2022-11-18T06:09:43;98739.17;;;-0.09;69.78
50310;BME280;36207;51.850;21.698;2022-11-18T06:12:17;98738.77;;;-0.08;69.67
50310;BME280;36207;51.850;21.698;2022-11-18T06:14:51;98739.56;;;-0.09;69.66
50310;BME280;36207;51.850;21.698;2022-11-18T06:17:26;98741.25;;;-0.12;69.53
50310;BME280;36207;51.850;21.698;2022-11-18T06:19:55;98743.48;;;-0.15;69.84
50310;BME280;36207;51.850;21.698;2022-11-18T06:22:23;98742.67;;;-0.14;69.77
50310;BME280;36207;51.850;21.698;2022-11-18T06:24:50;98747.55;;;-0.12;69.74
50310;BME280;36207;51.850;21.698;2022-11-18T06:27:16;98747.46;;;-0.11;69.87
50310;BME280;36207;51.850;21.698;2022-11-18T06:29:43;98749.09;;;-0.08;69.87
50310;BME280;36207;51.850;21.698;2022-11-18T06:32:09;98748.48;;;-0.07;69.92
50310;BME280;36207;51.850;21.698;2022-11-18T06:34:36;98747.86;;;-0.04;69.91
50310;BME280;36207;51.850;21.698;2022-11-18T06:37:15;98749.14;;;-0.03;69.83
50310;BME280;36207;51.850;21.698;2022-11-18T06:39:42;98751.20;;;-0.01;70.03
50310;BME280;36207;51.850;21.698;2022-11-18T06:42:09;98752.80;;;0.01;69.94
50310;BME280;36207;51.850;21.698;2022-11-18T06:44:35;98752.47;;;0.01;69.85
50310;BME280;36207;51.850;21.698;2022-11-18T06:47:02;98753.60;;;0.00;69.98
50310;BME280;36207;51.850;21.698;2022-11-18T06:49:29;98758.30;;;0.00;69.91
50310;BME280;36207;51.850;21.698;2022-11-18T06:51:55;98763.20;;;-0.02;70.15
50310;BME280;36207;51.850;21.698;2022-11-18T06:54:21;98763.14;;;-0.05;70.11
50310;BME280;36207;51.850;21.698;2022-11-18T06:56:48;98765.23;;;-0.05;70.23
50310;BME280;36207;51.850;21.698;2022-11-18T06:59:14;98772.77;;;-0.05;70.21
50310;BME280;36207;51.850;21.698;2022-11-18T07:01:40;98770.77;;;-0.02;70.30
50310;BME280;36207;51.850;21.698;2022-11-18T07:04:07;98772.63;;;0.03;70.28
50310;BME280;36207;51.850;21.698;2022-11-18T07:06:35;98773.63;;;0.03;70.31
50310;BME280;36207;51.850;21.698;2022-11-18T07:09:04;98774.79;;;0.04;70.42
50310;BME280;36207;51.850;21.698;2022-11-18T07:11:31;98779.03;;;0.05;70.38
50310;BME280;36207;51.850;21.698;2022-11-18T07:13:58;98780.23;;;0.06;70.40
50310;BME280;36207;51.850;21.698;2022-11-18T07:16:25;98781.25;;;0.06;70.43
50310;BME280;36207;51.850;21.698;2022-11-18T07:18:53;98786.05;;;0.05;70.30
50310;BME280;36207;51.850;21.698;2022-11-18T07:21:25;98789.85;;;0.02;70.24
50310;BME280;36207;51.850;21.698;2022-11-18T07:23:53;98789.38;;;-0.01;70.29
50310;BME280;36207;51.850;21.698;2022-11-18T07:26:20;98792.09;;;-0.02;70.41
50310;BME280;36207;51.850;21.698;2022-11-18T07:28:46;98790.41;;;-0.03;70.44
50310;BME280;36207;51.850;21.698;2022-11-18T07:31:18;98787.34;;;-0.04;70.54
50310;BME280;36207;51.850;21.698;2022-11-18T07:33:46;98787.37;;;-0.02;70.49
50310;BME280;36207;51.850;21.698;2022-11-18T07:36:18;98792.00;;;0.01;70.50
50310;BME280;36207;51.850;21.698;2022-11-18T07:38:45;98795.64;;;0.05;70.65
50310;BME280;36207;51.850;21.698;2022-11-18T07:41:15;98795.77;;;0.08;70.61
50310;BME280;36207;51.850;21.698;2022-11-18T07:43:42;98796.90;;;0.08;70.55
50310;BME280;36207;51.850;21.698;2022-11-18T07:48:40;98795.45;;;0.13;70.71
50310;BME280;36207;51.850;21.698;2022-11-18T07:51:07;98796.83;;;0.13;70.79
50310;BME280;36207;51.850;21.698;2022-11-18T07:53:35;98803.35;;;0.13;70.48
50310;BME280;36207;51.850;21.698;2022-11-18T07:56:03;98805.85;;;0.12;70.54
50310;BME280;36207;51.850;21.698;2022-11-18T07:58:29;98806.77;;;0.12;70.72
50310;BME280;36207;51.850;21.698;2022-11-18T08:00:56;98809.45;;;0.13;70.61
50310;BME280;36207;51.850;21.698;2022-11-18T08:03:26;98815.04;;;0.15;70.69
50310;BME280;36207;51.850;21.698;2022-11-18T08:05:58;98812.85;;;0.16;70.71
50310;BME280;36207;51.850;21.698;2022-11-18T08:08:24;98809.42;;;0.17;70.90
50310;BME280;36207;51.850;21.698;2022-11-18T08:10:54;98807.57;;;0.20;70.92
50310;BME280;36207;51.850;21.698;2022-11-18T08:13:21;98809.91;;;0.23;70.82
50310;BME280;36207;51.850;21.698;2022-11-18T08:15:47;98810.11;;;0.27;70.85
50310;BME280;36207;51.850;21.698;2022-11-18T08:18:13;98811.20;;;0.28;70.78
50310;BME280;36207;51.850;21.698;2022-11-18T08:20:40;98815.23;;;0.30;70.96
50310;BME280;36207;51.850;21.698;2022-11-18T08:23:06;98815.23;;;0.30;70.65
50310;BME280;36207;51.850;21.698;2022-11-18T08:25:32;98815.89;;;0.29;70.83
50310;BME280;36207;51.850;21.698;2022-11-18T08:27:59;98818.27;;;0.27;70.94
50310;BME280;36207;51.850;21.698;2022-11-18T08:30:25;98817.46;;;0.25;71.00
50310;BME280;36207;51.850;21.698;2022-11-18T08:32:51;98819.96;;;0.22;70.97
50310;BME280;36207;51.850;21.698;2022-11-18T08:35:17;98816.54;;;0.21;70.95
50310;BME280;36207;51.850;21.698;2022-11-18T08:37:43;98814.63;;;0.21;71.06
50310;BME280;36207;51.850;21.698;2022-11-18T08:40:10;98814.55;;;0.22;71.03
50310;BME280;36207;51.850;21.698;2022-11-18T08:42:36;98807.56;;;0.26;71.09
50310;BME280;36207;51.850;21.698;2022-11-18T08:45:04;98804.48;;;0.27;71.07
50310;BME280;36207;51.850;21.698;2022-11-18T08:47:34;98808.08;;;0.29;70.97
50310;BME280;36207;51.850;21.698;2022-11-18T08:50:01;98813.38;;;0.31;71.12
50310;BME280;36207;51.850;21.698;2022-11-18T08:52:28;98814.45;;;0.31;71.20
50310;BME280;36207;51.850;21.698;2022-11-18T08:54:55;98814.20;;;0.32;71.12
50310;BME280;36207;51.850;21.698;2022-11-18T08:57:21;98814.27;;;0.31;71.18
50310;BME280;36207;51.850;21.698;2022-11-18T08:59:47;98815.50;;;0.29;71.11
50310;BME280;36207;51.850;21.698;2022-11-18T09:02:19;98814.98;;;0.27;70.96
50310;BME280;36207;51.850;21.698;2022-11-18T09:04:46;98816.80;;;0.24;71.02
50310;BME280;36207;51.850;21.698;2022-11-18T09:07:12;98815.85;;;0.23;71.26
50310;BME280;36207;51.850;21.698;2022-11-18T09:09:39;98814.33;;;0.23;71.20
50310;BME280;36207;51.850;21.698;2022-11-18T09:12:05;98816.66;;;0.26;71.24
50310;BME280;36207;51.850;21.698;2022-11-18T09:14:31;98815.74;;;0.28;71.33
50310;BME280;36207;51.850;21.698;2022-11-18T09:16:57;98816.45;;;0.32;71.38
50310;BME280;36207;51.850;21.698;2022-11-18T09:19:24;98813.66;;;0.33;71.27
50310;BME280;36207;51.850;21.698;2022-11-18T09:21:50;98816.14;;;0.35;71.24
50310;BME280;36207;51.850;21.698;2022-11-18T09:24:16;98814.92;;;0.35;71.49
50310;BME280;36207;51.850;21.698;2022-11-18T09:26:42;98813.43;;;0.34;71.55
50310;BME280;36207;51.850;21.698;2022-11-18T09:29:09;98808.29;;;0.31;71.41
50310;BME280;36207;51.850;21.698;2022-11-18T09:31:36;98810.52;;;0.30;71.36
50310;BME280;36207;51.850;21.698;2022-11-18T09:34:02;98808.40;;;0.26;71.49
50310;BME280;36207;51.850;21.698;2022-11-18T09:36:28;98808.67;;;0.23;71.53
50310;BME280;36207;51.850;21.698;2022-11-18T09:38:55;98810.98;;;0.23;71.57
50310;BME280;36207;51.850;21.698;2022-11-18T09:49:34;98812.48;;;0.33;72.09
50310;BME280;36207;51.850;21.698;2022-11-18T09:52:51;98812.29;;;0.31;72.13
50310;BME280;36207;51.850;21.698;2022-11-18T09:54:51;98809.86;;;0.29;72.24
50310;BME280;36207;51.850;21.698;2022-11-18T09:57:38;98805.19;;;0.31;72.09
50310;BME280;36207;51.850;21.698;2022-11-18T10:00:26;98807.92;;;0.31;72.41
50310;BME280;36207;51.850;21.698;2022-11-18T10:11:16;98813.77;;;0.30;72.71
50310;BME280;36207;51.850;21.698;2022-11-18T10:14:13;98812.83;;;0.28;72.62
50310;BME280;36207;51.850;21.698;2022-11-18T10:16:51;98814.62;;;0.29;72.76
50310;BME280;36207;51.850;21.698;2022-11-18T10:24:42;98810.11;;;0.36;72.70
50310;BME280;36207;51.850;21.698;2022-11-18T10:27:12;98811.89;;;0.41;72.83
50310;BME280;36207;51.850;21.698;2022-11-18T10:29:40;98812.44;;;0.45;72.77
50310;BME280;36207;51.850;21.698;2022-11-18T10:32:11;98811.00;;;0.45;72.64
50310;BME280;36207;51.850;21.698;2022-11-18T10:34:48;98808.20;;;0.45;72.79
50310;BME280;36207;51.850;21.698;2022-11-18T10:37:32;98816.58;;;0.43;73.03
50310;BME280;36207;51.850;21.698;2022-11-18T10:39:59;98818.02;;;0.43;73.01
50310;BME280;36207;51.850;21.698;2022-11-18T10:42:39;98820.13;;;0.43;73.07
50310;BME280;36207;51.850;21.698;2022-11-18T10:48:25;98820.13;;;0.43;73.11
50310;BME280;36207;51.850;21.698;2022-11-18T10:50:51;98818.77;;;0.43;73.30
50310;BME280;36207;51.850;21.698;2022-11-18T10:53:35;98820.45;;;0.43;73.21
50310;BME280;36207;51.850;21.698;2022-11-18T10:56:08;98822.69;;;0.43;72.99
50310;BME280;36207;51.850;21.698;2022-11-18T10:58:43;98821.52;;;0.43;73.10
50310;BME280;36207;51.850;21.698;2022-11-18T11:01:23;98823.55;;;0.42;73.10
50310;BME280;36207;51.850;21.698;2022-11-18T11:08:53;98827.42;;;0.44;73.25
50310;BME280;36207;51.850;21.698;2022-11-18T11:11:36;98829.77;;;0.47;73.23
50310;BME280;36207;51.850;21.698;2022-11-18T11:16:46;98832.64;;;0.54;73.24
50310;BME280;36207;51.850;21.698;2022-11-18T11:19:17;98838.84;;;0.51;73.10
50310;BME280;36207;51.850;21.698;2022-11-18T11:21:46;98840.84;;;0.48;72.97
50310;BME280;36207;51.850;21.698;2022-11-18T11:24:13;98840.38;;;0.46;72.82
50310;BME280;36207;51.850;21.698;2022-11-18T11:26:47;98843.08;;;0.43;72.97
50310;BME280;36207;51.850;21.698;2022-11-18T11:32:09;98840.27;;;0.45;73.16
50310;BME280;36207;51.850;21.698;2022-11-18T11:37:52;98839.70;;;0.49;72.82
50310;BME280;36207;51.850;21.698;2022-11-18T11:45:29;98841.27;;;0.43;72.95
50310;BME280;36207;51.850;21.698;2022-11-18T11:50:51;98850.78;;;0.41;72.84
50310;BME280;36207;51.850;21.698;2022-11-18T12:01:25;98857.11;;;0.52;72.83
50310;BME280;36207;51.850;21.698;2022-11-18T12:06:34;98856.75;;;0.56;72.90
50310;BME280;36207;51.850;21.698;2022-11-18T12:09:14;98858.56;;;0.55;72.76
50310;BME280;36207;51.850;21.698;2022-11-18T12:14:51;98854.73;;;0.51;72.74
50310;BME280;36207;51.850;21.698;2022-11-18T12:17:44;98853.36;;;0.47;72.80
50310;BME280;36207;51.850;21.698;2022-11-18T12:21:09;98853.08;;;0.42;72.68
50310;BME280;36207;51.850;21.698;2022-11-18T12:28:23;98853.08;;;0.42;72.72
50310;BME280;36207;51.850;21.698;2022-11-18T12:33:55;98853.70;;;0.47;72.86
50310;BME280;36207;51.850;21.698;2022-11-18T12:36:27;98856.73;;;0.47;72.79
50310;BME280;36207;51.850;21.698;2022-11-18T12:38:54;98853.70;;;0.45;72.83
50310;BME280;36207;51.850;21.698;2022-11-18T12:44:26;98858.05;;;0.40;72.62
50310;BME280;36207;51.850;21.698;2022-11-18T12:46:56;98859.98;;;0.34;72.74
50310;BME280;36207;51.850;21.698;2022-11-18T12:51:57;98859.10;;;0.32;72.84
50310;BME280;36207;51.850;21.698;2022-11-18T12:54:33;98859.08;;;0.35;72.81
50310;BME280;36207;51.850;21.698;2022-11-18T12:57:17;98860.27;;;0.37;72.69
50310;BME280;36207;51.850;21.698;2022-11-18T12:59:44;98856.86;;;0.36;72.60
50310;BME280;36207;51.850;21.698;2022-11-18T13:04:38;98859.92;;;0.35;72.74
50310;BME280;36207;51.850;21.698;2022-11-18T13:07:08;98859.13;;;0.34;72.75
50310;BME280;36207;51.850;21.698;2022-11-18T13:09:56;98857.46;;;0.31;72.73
50310;BME280;36207;51.850;21.698;2022-11-18T13:12:28;98857.40;;;0.30;72.87
50310;BME280;36207;51.850;21.698;2022-11-18T13:14:56;98861.05;;;0.29;72.86
50310;BME280;36207;51.850;21.698;2022-11-18T13:17:42;98859.67;;;0.28;72.76
50310;BME280;36207;51.850;21.698;2022-11-18T13:20:34;98853.86;;;0.30;73.01
50310;BME280;36207;51.850;21.698;2022-11-18T13:26:28;98862.92;;;0.33;72.80
50310;BME280;36207;51.850;21.698;2022-11-18T13:34:48;98862.95;;;0.34;72.73
50310;BME280;36207;51.850;21.698;2022-11-18T13:37:33;98863.98;;;0.33;72.71
50310;BME280;36207;51.850;21.698;2022-11-18T13:39:59;98860.61;;;0.29;72.76
50310;BME280;36207;51.850;21.698;2022-11-18T13:42:28;98866.72;;;0.28;72.76
50310;BME280;36207;51.850;21.698;2022-11-18T13:44:57;98868.66;;;0.26;72.71
50310;BME280;36207;51.850;21.698;2022-11-18T13:52:46;98868.16;;;0.21;72.61
50310;BME280;36207;51.850;21.698;2022-11-18T13:55:24;98869.23;;;0.23;72.68
50310;BME280;36207;51.850;21.698;2022-11-18T13:58:10;98870.47;;;0.25;72.73
50310;BME280;36207;51.850;21.698;2022-11-18T14:00:43;98869.65;;;0.25;72.70
50310;BME280;36207;51.850;21.698;2022-11-18T14:06:34;98872.84;;;0.22;72.84
50310;BME280;36207;51.850;21.698;2022-11-18T14:11:35;98876.11;;;0.15;72.81
50310;BME280;36207;51.850;21.698;2022-11-18T14:14:02;98876.38;;;0.14;72.66
50310;BME280;36207;51.850;21.698;2022-11-18T14:16:29;98878.63;;;0.14;72.84
50310;BME280;36207;51.850;21.698;2022-11-18T14:18:56;98879.30;;;0.15;72.69
50310;BME280;36207;51.850;21.698;2022-11-18T14:21:31;98884.45;;;0.16;72.84
50310;BME280;36207;51.850;21.698;2022-11-18T14:23:58;98887.69;;;0.17;72.90
50310;BME280;36207;51.850;21.698;2022-11-18T14:26:37;98891.27;;;0.19;72.81
50310;BME280;36207;51.850;21.698;2022-11-18T14:29:16;98896.64;;;0.20;72.68
50310;BME280;36207;51.850;21.698;2022-11-18T14:32:10;98900.73;;;0.19;72.65
50310;BME280;36207;51.850;21.698;2022-11-18T14:34:37;98898.46;;;0.14;72.71
50310;BME280;36207;51.850;21.698;2022-11-18T14:37:12;98899.13;;;0.10;72.78
50310;BME280;36207;51.850;21.698;2022-11-18T14:39:39;98901.63;;;0.06;72.65
50310;BME280;36207;51.850;21.698;2022-11-18T14:42:10;98903.20;;;0.04;72.78
50310;BME280;36207;51.850;21.698;2022-11-18T14:44:38;98910.80;;;0.07;72.93
50310;BME280;36207;51.850;21.698;2022-11-18T14:47:19;98910.90;;;0.11;72.80
50310;BME280;36207;51.850;21.698;2022-11-18T14:49:48;98911.32;;;0.13;72.77
50310;BME280;36207;51.850;21.698;2022-11-18T14:52:14;98912.28;;;0.16;72.84
50310;BME280;36207;51.850;21.698;2022-11-18T14:54:41;98912.42;;;0.18;73.02
50310;BME280;36207;51.850;21.698;2022-11-18T14:57:11;98914.22;;;0.17;72.95
50310;BME280;36207;51.850;21.698;2022-11-18T14:59:39;98920.02;;;0.13;72.78
50310;BME280;36207;51.850;21.698;2022-11-18T15:02:10;98918.86;;;0.11;72.79
50310;BME280;36207;51.850;21.698;2022-11-18T15:04:38;98919.60;;;0.06;72.82
50310;BME280;36207;51.850;21.698;2022-11-18T15:07:04;98917.41;;;0.04;72.94
50310;BME280;36207;51.850;21.698;2022-11-18T15:09:30;98918.56;;;0.03;72.98
50310;BME280;36207;51.850;21.698;2022-11-18T15:11:57;98920.25;;;0.03;72.88
50310;BME280;36207;51.850;21.698;2022-11-18T15:14:23;98924.73;;;0.06;72.88
50310;BME280;36207;51.850;21.698;2022-11-18T15:16:49;98926.38;;;0.09;73.06
50310;BME280;36207;51.850;21.698;2022-11-18T15:19:16;98927.45;;;0.12;73.11